This is the latest recevied weather packets stored in our database for station/object DG0LHZ-10. If no packets are shown the sender has not sent any weather packets the latest 10 day(s).
| Time | Temp. | Humidity | Pressure | Rain* | Wind** | Luminosity | Snow |
|---|---|---|---|---|---|---|---|
| 1777576744 | 17.78° C | 28% | 1030.9 hPa | - | - | - | - |
| 1777575844 | 18.33° C | 28% | 1030.8 hPa | - | - | - | - |
| 1777574944 | 18.89° C | 27% | 1030.7 hPa | - | - | - | - |
| 1777574044 | 20° C | 27% | 1030.7 hPa | - | - | - | - |
| 1777573144 | 20.56° C | 26% | 1030.7 hPa | - | - | - | - |
| 1777572244 | 21.11° C | 26% | 1030.6 hPa | - | - | - | - |
| 1777571343 | 21.67° C | 26% | 1030.7 hPa | - | - | - | - |
| 1777570443 | 22.22° C | 25% | 1030.7 hPa | - | - | - | - |
| 1777569543 | 23.33° C | 26% | 1030.7 hPa | - | - | - | - |
| 1777568643 | 23.89° C | 25% | 1030.8 hPa | - | - | - | - |
| 1777567743 | 24.44° C | 25% | 1030.9 hPa | - | - | - | - |
| 1777566843 | 24.44° C | 25% | 1031.1 hPa | - | - | - | - |
| 1777565943 | 25° C | 26% | 1031.1 hPa | - | - | - | - |
| 1777565043 | 25° C | 25% | 1031.1 hPa | - | - | - | - |
| 1777564143 | 25.56° C | 25% | 1031.1 hPa | - | - | - | - |
| 1777563243 | 25.56° C | 25% | 1031.1 hPa | - | - | - | - |
| 1777562343 | 25.56° C | 25% | 1031.2 hPa | - | - | - | - |
| 1777561443 | 26.11° C | 25% | 1031.4 hPa | - | - | - | - |
| 1777560543 | 26.11° C | 25% | 1031.5 hPa | - | - | - | - |
| 1777559643 | 26.11° C | 25% | 1031.6 hPa | - | - | - | - |
| 1777558743 | 26.11° C | 24% | 1031.6 hPa | - | - | - | - |
| 1777557843 | 25.56° C | 25% | 1031.9 hPa | - | - | - | - |
| 1777556942 | 25.56° C | 25% | 1032 hPa | - | - | - | - |
| 1777556042 | 25.56° C | 24% | 1032.1 hPa | - | - | - | - |
| 1777555142 | 25° C | 25% | 1032.2 hPa | - | - | - | - |
* Rain since midnight (hover to see other rain measurements)
** Current wind speed in m/s (hover to see current wind gust speed)